sensor_id;sensor_type;location;lat;lon;timestamp;P1;durP1;ratioP1;P2;durP2;ratioP2
76310;SDS011;65120;59.304;18.294;2023-06-26T00:00:11;1.27;;;1.00;;
76310;SDS011;65120;59.304;18.294;2023-06-26T00:02:39;1.50;;;0.95;;
76310;SDS011;65120;59.304;18.294;2023-06-26T00:05:06;1.30;;;1.10;;
76310;SDS011;65120;59.304;18.294;2023-06-26T00:07:34;2.83;;;1.17;;
76310;SDS011;65120;59.304;18.294;2023-06-26T00:10:01;2.38;;;1.83;;
76310;SDS011;65120;59.304;18.294;2023-06-26T00:12:29;1.27;;;0.85;;
76310;SDS011;65120;59.304;18.294;2023-06-26T00:14:57;1.20;;;0.98;;
76310;SDS011;65120;59.304;18.294;2023-06-26T00:17:25;1.85;;;1.00;;
76310;SDS011;65120;59.304;18.294;2023-06-26T00:19:51;2.45;;;1.30;;
76310;SDS011;65120;59.304;18.294;2023-06-26T00:22:19;2.38;;;1.10;;
76310;SDS011;65120;59.304;18.294;2023-06-26T00:24:47;2.05;;;1.05;;
76310;SDS011;65120;59.304;18.294;2023-06-26T00:27:14;3.42;;;1.08;;
76310;SDS011;65120;59.304;18.294;2023-06-26T00:29:41;3.38;;;1.10;;
76310;SDS011;65120;59.304;18.294;2023-06-26T00:32:09;0.95;;;0.80;;
76310;SDS011;65120;59.304;18.294;2023-06-26T00:34:36;3.42;;;1.20;;
76310;SDS011;65120;59.304;18.294;2023-06-26T00:37:03;2.85;;;1.10;;
76310;SDS011;65120;59.304;18.294;2023-06-26T00:39:30;1.88;;;1.27;;
76310;SDS011;65120;59.304;18.294;2023-06-26T00:41:57;1.25;;;1.15;;
76310;SDS011;65120;59.304;18.294;2023-06-26T00:44:24;1.67;;;1.30;;
76310;SDS011;65120;59.304;18.294;2023-06-26T00:46:51;1.42;;;0.93;;
76310;SDS011;65120;59.304;18.294;2023-06-26T00:49:19;1.50;;;1.25;;
76310;SDS011;65120;59.304;18.294;2023-06-26T00:51:46;1.17;;;1.08;;
76310;SDS011;65120;59.304;18.294;2023-06-26T00:54:13;2.50;;;1.00;;
76310;SDS011;65120;59.304;18.294;2023-06-26T00:56:45;1.40;;;1.30;;
76310;SDS011;65120;59.304;18.294;2023-06-26T00:59:12;1.02;;;0.85;;
76310;SDS011;65120;59.304;18.294;2023-06-26T01:01:39;2.35;;;1.02;;
76310;SDS011;65120;59.304;18.294;2023-06-26T01:04:06;3.75;;;1.02;;
76310;SDS011;65120;59.304;18.294;2023-06-26T01:06:34;4.35;;;1.00;;
76310;SDS011;65120;59.304;18.294;2023-06-26T01:09:02;1.83;;;1.08;;
76310;SDS011;65120;59.304;18.294;2023-06-26T01:11:30;7.78;;;1.52;;
76310;SDS011;65120;59.304;18.294;2023-06-26T01:13:57;2.10;;;1.30;;
76310;SDS011;65120;59.304;18.294;2023-06-26T01:16:27;1.58;;;1.08;;
76310;SDS011;65120;59.304;18.294;2023-06-26T01:18:55;1.55;;;1.30;;
76310;SDS011;65120;59.304;18.294;2023-06-26T01:21:23;2.22;;;1.77;;
76310;SDS011;65120;59.304;18.294;2023-06-26T01:24:01;1.23;;;1.10;;
76310;SDS011;65120;59.304;18.294;2023-06-26T01:26:37;2.17;;;1.10;;
76310;SDS011;65120;59.304;18.294;2023-06-26T01:29:06;4.50;;;1.55;;
76310;SDS011;65120;59.304;18.294;2023-06-26T01:31:36;2.08;;;1.45;;
76310;SDS011;65120;59.304;18.294;2023-06-26T01:34:03;2.40;;;1.05;;
76310;SDS011;65120;59.304;18.294;2023-06-26T01:36:31;1.30;;;1.20;;
76310;SDS011;65120;59.304;18.294;2023-06-26T01:38:58;1.40;;;1.30;;
76310;SDS011;65120;59.304;18.294;2023-06-26T01:41:25;7.75;;;1.40;;
76310;SDS011;65120;59.304;18.294;2023-06-26T01:44:05;1.50;;;1.40;;
76310;SDS011;65120;59.304;18.294;2023-06-26T01:46:43;2.90;;;1.58;;
76310;SDS011;65120;59.304;18.294;2023-06-26T01:49:19;2.42;;;1.10;;
76310;SDS011;65120;59.304;18.294;2023-06-26T01:51:53;2.63;;;1.40;;
76310;SDS011;65120;59.304;18.294;2023-06-26T01:54:25;3.22;;;1.42;;
76310;SDS011;65120;59.304;18.294;2023-06-26T01:56:59;9.40;;;1.98;;
76310;SDS011;65120;59.304;18.294;2023-06-26T01:59:28;1.83;;;1.20;;
76310;SDS011;65120;59.304;18.294;2023-06-26T02:02:00;2.17;;;1.30;;
76310;SDS011;65120;59.304;18.294;2023-06-26T02:04:27;6.53;;;1.92;;
76310;SDS011;65120;59.304;18.294;2023-06-26T02:06:54;1.48;;;1.38;;
76310;SDS011;65120;59.304;18.294;2023-06-26T02:09:21;2.13;;;1.20;;
76310;SDS011;65120;59.304;18.294;2023-06-26T02:11:48;2.95;;;1.67;;
76310;SDS011;65120;59.304;18.294;2023-06-26T02:14:15;1.38;;;1.20;;
76310;SDS011;65120;59.304;18.294;2023-06-26T02:16:43;1.50;;;1.40;;
76310;SDS011;65120;59.304;18.294;2023-06-26T02:19:10;2.53;;;1.83;;
76310;SDS011;65120;59.304;18.294;2023-06-26T02:21:37;3.08;;;1.10;;
76310;SDS011;65120;59.304;18.294;2023-06-26T02:24:04;1.98;;;1.63;;
76310;SDS011;65120;59.304;18.294;2023-06-26T02:26:32;1.23;;;1.13;;
76310;SDS011;65120;59.304;18.294;2023-06-26T02:28:59;2.33;;;1.60;;
76310;SDS011;65120;59.304;18.294;2023-06-26T02:31:25;2.95;;;2.10;;
76310;SDS011;65120;59.304;18.294;2023-06-26T02:33:54;3.38;;;1.75;;
76310;SDS011;65120;59.304;18.294;2023-06-26T02:36:21;1.80;;;1.58;;
76310;SDS011;65120;59.304;18.294;2023-06-26T02:38:48;2.33;;;1.30;;
76310;SDS011;65120;59.304;18.294;2023-06-26T02:41:15;2.15;;;1.40;;
76310;SDS011;65120;59.304;18.294;2023-06-26T02:43:41;2.20;;;1.50;;
76310;SDS011;65120;59.304;18.294;2023-06-26T02:46:08;2.30;;;1.90;;
76310;SDS011;65120;59.304;18.294;2023-06-26T02:48:35;2.85;;;1.75;;
76310;SDS011;65120;59.304;18.294;2023-06-26T02:51:03;2.72;;;1.58;;
76310;SDS011;65120;59.304;18.294;2023-06-26T02:53:30;2.97;;;1.88;;
76310;SDS011;65120;59.304;18.294;2023-06-26T02:55:57;5.47;;;1.77;;
76310;SDS011;65120;59.304;18.294;2023-06-26T02:58:24;1.83;;;1.70;;
76310;SDS011;65120;59.304;18.294;2023-06-26T03:00:51;3.55;;;1.58;;
76310;SDS011;65120;59.304;18.294;2023-06-26T03:03:18;3.17;;;2.03;;
76310;SDS011;65120;59.304;18.294;2023-06-26T03:05:45;1.63;;;1.52;;
76310;SDS011;65120;59.304;18.294;2023-06-26T03:08:14;4.40;;;1.60;;
76310;SDS011;65120;59.304;18.294;2023-06-26T03:10:41;1.98;;;1.80;;
76310;SDS011;65120;59.304;18.294;2023-06-26T03:13:08;4.25;;;1.50;;
76310;SDS011;65120;59.304;18.294;2023-06-26T03:15:35;3.00;;;1.88;;
76310;SDS011;65120;59.304;18.294;2023-06-26T03:18:02;3.33;;;1.77;;
76310;SDS011;65120;59.304;18.294;2023-06-26T03:20:29;3.45;;;2.38;;
76310;SDS011;65120;59.304;18.294;2023-06-26T03:22:56;2.10;;;1.48;;
76310;SDS011;65120;59.304;18.294;2023-06-26T03:25:24;4.00;;;1.98;;
76310;SDS011;65120;59.304;18.294;2023-06-26T03:27:51;3.30;;;1.50;;
76310;SDS011;65120;59.304;18.294;2023-06-26T03:30:18;1.85;;;1.50;;
76310;SDS011;65120;59.304;18.294;2023-06-26T03:32:45;3.92;;;1.73;;
76310;SDS011;65120;59.304;18.294;2023-06-26T03:35:12;3.45;;;1.80;;
76310;SDS011;65120;59.304;18.294;2023-06-26T03:37:39;5.35;;;2.20;;
76310;SDS011;65120;59.304;18.294;2023-06-26T03:40:07;2.10;;;1.88;;
76310;SDS011;65120;59.304;18.294;2023-06-26T03:42:36;3.17;;;2.38;;
76310;SDS011;65120;59.304;18.294;2023-06-26T03:45:03;2.75;;;2.00;;
76310;SDS011;65120;59.304;18.294;2023-06-26T03:47:31;2.58;;;1.88;;
76310;SDS011;65120;59.304;18.294;2023-06-26T03:49:59;2.65;;;2.13;;
76310;SDS011;65120;59.304;18.294;2023-06-26T03:52:26;3.17;;;2.70;;
76310;SDS011;65120;59.304;18.294;2023-06-26T03:54:56;4.45;;;2.20;;
76310;SDS011;65120;59.304;18.294;2023-06-26T03:57:24;4.82;;;2.92;;
76310;SDS011;65120;59.304;18.294;2023-06-26T03:59:52;2.88;;;2.30;;
76310;SDS011;65120;59.304;18.294;2023-06-26T04:02:19;3.97;;;2.75;;
76310;SDS011;65120;59.304;18.294;2023-06-26T04:04:46;3.20;;;2.35;;
76310;SDS011;65120;59.304;18.294;2023-06-26T04:07:13;4.63;;;2.55;;
76310;SDS011;65120;59.304;18.294;2023-06-26T04:09:40;2.13;;;1.92;;
76310;SDS011;65120;59.304;18.294;2023-06-26T04:12:07;2.28;;;2.08;;
76310;SDS011;65120;59.304;18.294;2023-06-26T04:14:34;2.40;;;1.77;;
76310;SDS011;65120;59.304;18.294;2023-06-26T04:17:02;5.07;;;2.10;;
76310;SDS011;65120;59.304;18.294;2023-06-26T04:19:30;3.00;;;2.38;;
76310;SDS011;65120;59.304;18.294;2023-06-26T04:21:56;2.13;;;1.92;;
76310;SDS011;65120;59.304;18.294;2023-06-26T04:24:24;4.15;;;1.80;;
76310;SDS011;65120;59.304;18.294;2023-06-26T04:26:51;2.47;;;1.80;;
76310;SDS011;65120;59.304;18.294;2023-06-26T04:29:17;1.92;;;1.17;;
76310;SDS011;65120;59.304;18.294;2023-06-26T04:31:50;2.30;;;1.38;;
76310;SDS011;65120;59.304;18.294;2023-06-26T04:34:19;1.77;;;1.40;;
76310;SDS011;65120;59.304;18.294;2023-06-26T04:36:45;1.42;;;1.20;;
76310;SDS011;65120;59.304;18.294;2023-06-26T04:39:15;2.40;;;1.30;;
76310;SDS011;65120;59.304;18.294;2023-06-26T04:41:43;3.47;;;1.25;;
76310;SDS011;65120;59.304;18.294;2023-06-26T04:44:10;2.58;;;1.13;;
76310;SDS011;65120;59.304;18.294;2023-06-26T04:46:37;1.95;;;1.35;;
76310;SDS011;65120;59.304;18.294;2023-06-26T04:49:07;2.08;;;0.93;;
76310;SDS011;65120;59.304;18.294;2023-06-26T04:51:36;4.63;;;1.00;;
76310;SDS011;65120;59.304;18.294;2023-06-26T04:54:05;0.90;;;0.68;;
76310;SDS011;65120;59.304;18.294;2023-06-26T04:56:32;2.13;;;0.95;;
76310;SDS011;65120;59.304;18.294;2023-06-26T04:58:59;1.27;;;0.77;;
76310;SDS011;65120;59.304;18.294;2023-06-26T05:01:26;1.10;;;0.95;;
76310;SDS011;65120;59.304;18.294;2023-06-26T05:03:54;2.05;;;1.23;;
76310;SDS011;65120;59.304;18.294;2023-06-26T05:06:22;1.98;;;0.63;;
76310;SDS011;65120;59.304;18.294;2023-06-26T05:08:50;0.90;;;0.70;;
76310;SDS011;65120;59.304;18.294;2023-06-26T05:11:17;0.90;;;0.80;;
76310;SDS011;65120;59.304;18.294;2023-06-26T05:13:44;0.90;;;0.80;;
76310;SDS011;65120;59.304;18.294;2023-06-26T05:16:11;2.20;;;0.80;;
76310;SDS011;65120;59.304;18.294;2023-06-26T05:18:38;1.10;;;0.82;;
76310;SDS011;65120;59.304;18.294;2023-06-26T05:21:05;3.15;;;0.68;;
76310;SDS011;65120;59.304;18.294;2023-06-26T05:23:32;1.85;;;0.80;;
76310;SDS011;65120;59.304;18.294;2023-06-26T05:26:02;1.38;;;0.82;;
76310;SDS011;65120;59.304;18.294;2023-06-26T05:28:30;3.33;;;0.80;;
76310;SDS011;65120;59.304;18.294;2023-06-26T05:30:57;1.05;;;0.80;;
76310;SDS011;65120;59.304;18.294;2023-06-26T05:33:25;0.88;;;0.68;;
76310;SDS011;65120;59.304;18.294;2023-06-26T05:35:54;1.23;;;0.93;;
76310;SDS011;65120;59.304;18.294;2023-06-26T05:38:21;1.95;;;0.60;;
76310;SDS011;65120;59.304;18.294;2023-06-26T05:40:49;1.95;;;0.70;;
76310;SDS011;65120;59.304;18.294;2023-06-26T05:43:18;2.97;;;0.77;;
76310;SDS011;65120;59.304;18.294;2023-06-26T05:45:46;1.83;;;0.68;;
76310;SDS011;65120;59.304;18.294;2023-06-26T05:48:14;2.03;;;0.73;;
76310;SDS011;65120;59.304;18.294;2023-06-26T05:50:42;0.75;;;0.60;;
76310;SDS011;65120;59.304;18.294;2023-06-26T05:53:10;0.80;;;0.52;;
76310;SDS011;65120;59.304;18.294;2023-06-26T05:55:38;1.15;;;0.50;;
76310;SDS011;65120;59.304;18.294;2023-06-26T05:58:07;4.80;;;1.30;;
76310;SDS011;65120;59.304;18.294;2023-06-26T06:00:38;1.92;;;0.60;;
76310;SDS011;65120;59.304;18.294;2023-06-26T06:03:06;1.30;;;0.55;;
76310;SDS011;65120;59.304;18.294;2023-06-26T06:05:35;2.60;;;0.70;;
76310;SDS011;65120;59.304;18.294;2023-06-26T06:08:02;0.80;;;0.63;;
76310;SDS011;65120;59.304;18.294;2023-06-26T06:10:29;0.75;;;0.50;;
76310;SDS011;65120;59.304;18.294;2023-06-26T06:12:56;1.45;;;0.82;;
76310;SDS011;65120;59.304;18.294;2023-06-26T06:15:23;2.90;;;0.60;;
76310;SDS011;65120;59.304;18.294;2023-06-26T06:17:51;2.72;;;0.80;;
76310;SDS011;65120;59.304;18.294;2023-06-26T06:20:18;1.55;;;0.90;;
76310;SDS011;65120;59.304;18.294;2023-06-26T06:22:46;2.47;;;0.75;;
76310;SDS011;65120;59.304;18.294;2023-06-26T06:25:14;1.42;;;0.50;;
76310;SDS011;65120;59.304;18.294;2023-06-26T06:27:41;3.42;;;0.77;;
76310;SDS011;65120;59.304;18.294;2023-06-26T06:30:09;1.15;;;0.52;;
76310;SDS011;65120;59.304;18.294;2023-06-26T06:32:36;1.92;;;0.50;;
76310;SDS011;65120;59.304;18.294;2023-06-26T06:35:05;5.50;;;1.35;;
76310;SDS011;65120;59.304;18.294;2023-06-26T06:37:35;0.90;;;0.70;;
76310;SDS011;65120;59.304;18.294;2023-06-26T06:40:02;1.45;;;0.60;;
76310;SDS011;65120;59.304;18.294;2023-06-26T06:42:31;1.70;;;0.50;;
76310;SDS011;65120;59.304;18.294;2023-06-26T06:44:58;1.65;;;0.60;;
76310;SDS011;65120;59.304;18.294;2023-06-26T06:47:25;2.05;;;0.60;;
76310;SDS011;65120;59.304;18.294;2023-06-26T06:49:51;1.13;;;0.80;;
76310;SDS011;65120;59.304;18.294;2023-06-26T06:52:20;2.72;;;0.52;;
76310;SDS011;65120;59.304;18.294;2023-06-26T06:54:53;1.95;;;0.75;;
76310;SDS011;65120;59.304;18.294;2023-06-26T06:57:21;0.97;;;0.63;;
76310;SDS011;65120;59.304;18.294;2023-06-26T06:59:48;2.47;;;1.88;;
76310;SDS011;65120;59.304;18.294;2023-06-26T07:02:16;1.73;;;0.60;;
76310;SDS011;65120;59.304;18.294;2023-06-26T07:04:43;0.70;;;0.40;;
76310;SDS011;65120;59.304;18.294;2023-06-26T07:07:11;0.90;;;0.50;;
76310;SDS011;65120;59.304;18.294;2023-06-26T07:09:41;0.80;;;0.50;;
76310;SDS011;65120;59.304;18.294;2023-06-26T07:12:08;0.70;;;0.57;;
76310;SDS011;65120;59.304;18.294;2023-06-26T07:14:35;3.00;;;0.65;;
76310;SDS011;65120;59.304;18.294;2023-06-26T07:17:02;1.05;;;0.50;;
76310;SDS011;65120;59.304;18.294;2023-06-26T07:19:29;0.68;;;0.50;;
76310;SDS011;65120;59.304;18.294;2023-06-26T07:21:56;3.05;;;0.57;;
76310;SDS011;65120;59.304;18.294;2023-06-26T07:24:26;1.15;;;0.70;;
76310;SDS011;65120;59.304;18.294;2023-06-26T07:26:54;0.85;;;0.40;;
76310;SDS011;65120;59.304;18.294;2023-06-26T07:29:21;2.17;;;0.60;;
76310;SDS011;65120;59.304;18.294;2023-06-26T07:31:48;1.05;;;0.50;;
76310;SDS011;65120;59.304;18.294;2023-06-26T07:34:15;2.35;;;0.52;;
76310;SDS011;65120;59.304;18.294;2023-06-26T07:36:41;1.23;;;0.70;;
76310;SDS011;65120;59.304;18.294;2023-06-26T07:39:08;1.05;;;0.40;;
76310;SDS011;65120;59.304;18.294;2023-06-26T07:41:35;0.80;;;0.50;;
76310;SDS011;65120;59.304;18.294;2023-06-26T07:44:04;0.45;;;0.40;;
76310;SDS011;65120;59.304;18.294;2023-06-26T07:46:31;1.00;;;0.47;;
76310;SDS011;65120;59.304;18.294;2023-06-26T07:48:57;0.70;;;0.50;;
76310;SDS011;65120;59.304;18.294;2023-06-26T07:51:26;1.65;;;0.60;;
76310;SDS011;65120;59.304;18.294;2023-06-26T07:53:53;0.88;;;0.50;;
76310;SDS011;65120;59.304;18.294;2023-06-26T07:56:20;0.52;;;0.40;;
76310;SDS011;65120;59.304;18.294;2023-06-26T07:58:47;1.92;;;0.40;;
76310;SDS011;65120;59.304;18.294;2023-06-26T08:01:15;0.75;;;0.40;;
76310;SDS011;65120;59.304;18.294;2023-06-26T08:03:42;0.50;;;0.40;;
76310;SDS011;65120;59.304;18.294;2023-06-26T08:06:09;0.70;;;0.40;;
76310;SDS011;65120;59.304;18.294;2023-06-26T08:08:36;1.50;;;0.45;;
76310;SDS011;65120;59.304;18.294;2023-06-26T08:11:03;0.75;;;0.30;;
76310;SDS011;65120;59.304;18.294;2023-06-26T08:13:30;1.50;;;0.40;;
76310;SDS011;65120;59.304;18.294;2023-06-26T08:15:57;0.40;;;0.35;;
76310;SDS011;65120;59.304;18.294;2023-06-26T08:18:25;0.90;;;0.40;;
76310;SDS011;65120;59.304;18.294;2023-06-26T08:20:52;2.25;;;0.43;;
76310;SDS011;65120;59.304;18.294;2023-06-26T08:23:19;3.67;;;0.50;;
76310;SDS011;65120;59.304;18.294;2023-06-26T08:25:47;0.40;;;0.30;;
76310;SDS011;65120;59.304;18.294;2023-06-26T08:28:14;2.92;;;0.45;;
76310;SDS011;65120;59.304;18.294;2023-06-26T08:30:41;1.00;;;0.40;;
76310;SDS011;65120;59.304;18.294;2023-06-26T08:33:08;0.50;;;0.40;;
76310;SDS011;65120;59.304;18.294;2023-06-26T08:35:38;0.50;;;0.38;;
76310;SDS011;65120;59.304;18.294;2023-06-26T08:38:05;0.45;;;0.30;;
76310;SDS011;65120;59.304;18.294;2023-06-26T08:40:34;0.50;;;0.40;;
76310;SDS011;65120;59.304;18.294;2023-06-26T08:43:01;0.40;;;0.40;;
76310;SDS011;65120;59.304;18.294;2023-06-26T08:45:29;0.77;;;0.30;;
76310;SDS011;65120;59.304;18.294;2023-06-26T08:47:57;1.10;;;0.43;;
76310;SDS011;65120;59.304;18.294;2023-06-26T08:50:30;0.40;;;0.30;;
76310;SDS011;65120;59.304;18.294;2023-06-26T08:53:03;0.73;;;0.30;;
76310;SDS011;65120;59.304;18.294;2023-06-26T08:55:38;1.27;;;0.40;;
76310;SDS011;65120;59.304;18.294;2023-06-26T08:58:07;0.95;;;0.30;;
76310;SDS011;65120;59.304;18.294;2023-06-26T09:00:34;0.60;;;0.30;;
76310;SDS011;65120;59.304;18.294;2023-06-26T09:03:01;1.55;;;0.30;;
76310;SDS011;65120;59.304;18.294;2023-06-26T09:05:30;1.48;;;0.45;;
76310;SDS011;65120;59.304;18.294;2023-06-26T09:07:57;2.70;;;0.25;;
76310;SDS011;65120;59.304;18.294;2023-06-26T09:10:26;0.65;;;0.30;;
76310;SDS011;65120;59.304;18.294;2023-06-26T09:12:54;0.52;;;0.40;;
76310;SDS011;65120;59.304;18.294;2023-06-26T09:15:22;0.77;;;0.30;;
76310;SDS011;65120;59.304;18.294;2023-06-26T09:17:49;0.57;;;0.30;;
76310;SDS011;65120;59.304;18.294;2023-06-26T09:20:16;1.45;;;0.32;;
76310;SDS011;65120;59.304;18.294;2023-06-26T09:22:43;0.50;;;0.40;;
76310;SDS011;65120;59.304;18.294;2023-06-26T09:25:14;0.55;;;0.30;;
76310;SDS011;65120;59.304;18.294;2023-06-26T09:27:42;0.30;;;0.30;;
76310;SDS011;65120;59.304;18.294;2023-06-26T09:30:10;0.35;;;0.30;;
76310;SDS011;65120;59.304;18.294;2023-06-26T09:32:37;0.30;;;0.30;;
76310;SDS011;65120;59.304;18.294;2023-06-26T09:35:04;0.40;;;0.20;;
76310;SDS011;65120;59.304;18.294;2023-06-26T09:37:32;0.28;;;0.22;;
76310;SDS011;65120;59.304;18.294;2023-06-26T09:40:00;0.40;;;0.30;;
76310;SDS011;65120;59.304;18.294;2023-06-26T09:42:28;1.08;;;0.40;;
76310;SDS011;65120;59.304;18.294;2023-06-26T09:44:57;1.77;;;0.30;;
76310;SDS011;65120;59.304;18.294;2023-06-26T09:47:24;0.95;;;0.28;;
76310;SDS011;65120;59.304;18.294;2023-06-26T09:49:51;0.25;;;0.20;;
76310;SDS011;65120;59.304;18.294;2023-06-26T09:52:20;0.80;;;0.30;;
76310;SDS011;65120;59.304;18.294;2023-06-26T09:54:46;0.40;;;0.30;;
76310;SDS011;65120;59.304;18.294;2023-06-26T09:57:14;0.35;;;0.30;;
76310;SDS011;65120;59.304;18.294;2023-06-26T09:59:43;0.68;;;0.25;;
76310;SDS011;65120;59.304;18.294;2023-06-26T10:02:12;0.40;;;0.30;;
76310;SDS011;65120;59.304;18.294;2023-06-26T10:04:39;0.30;;;0.30;;
76310;SDS011;65120;59.304;18.294;2023-06-26T10:07:06;0.47;;;0.30;;
76310;SDS011;65120;59.304;18.294;2023-06-26T10:09:40;0.73;;;0.22;;
76310;SDS011;65120;59.304;18.294;2023-06-26T10:12:09;0.35;;;0.30;;
76310;SDS011;65120;59.304;18.294;2023-06-26T10:14:41;1.23;;;0.30;;
76310;SDS011;65120;59.304;18.294;2023-06-26T10:17:09;0.30;;;0.30;;
76310;SDS011;65120;59.304;18.294;2023-06-26T10:19:41;0.93;;;0.22;;
76310;SDS011;65120;59.304;18.294;2023-06-26T10:22:11;1.27;;;0.28;;
76310;SDS011;65120;59.304;18.294;2023-06-26T10:24:41;0.30;;;0.30;;
76310;SDS011;65120;59.304;18.294;2023-06-26T10:27:12;0.57;;;0.30;;
76310;SDS011;65120;59.304;18.294;2023-06-26T10:29:42;1.95;;;0.30;;
76310;SDS011;65120;59.304;18.294;2023-06-26T10:32:11;0.20;;;0.20;;
76310;SDS011;65120;59.304;18.294;2023-06-26T10:34:41;0.60;;;0.20;;
76310;SDS011;65120;59.304;18.294;2023-06-26T10:37:08;0.30;;;0.20;;
76310;SDS011;65120;59.304;18.294;2023-06-26T10:39:48;0.30;;;0.20;;
76310;SDS011;65120;59.304;18.294;2023-06-26T10:42:16;2.05;;;0.50;;
76310;SDS011;65120;59.304;18.294;2023-06-26T10:44:44;1.17;;;0.22;;
76310;SDS011;65120;59.304;18.294;2023-06-26T10:47:12;0.28;;;0.20;;
76310;SDS011;65120;59.304;18.294;2023-06-26T10:49:56;1.65;;;0.20;;
76310;SDS011;65120;59.304;18.294;2023-06-26T10:52:42;4.15;;;0.30;;
76310;SDS011;65120;59.304;18.294;2023-06-26T10:55:09;0.22;;;0.20;;
76310;SDS011;65120;59.304;18.294;2023-06-26T10:57:36;0.80;;;0.20;;
76310;SDS011;65120;59.304;18.294;2023-06-26T11:00:09;1.25;;;0.28;;
76310;SDS011;65120;59.304;18.294;2023-06-26T11:02:47;2.15;;;0.30;;
76310;SDS011;65120;59.304;18.294;2023-06-26T11:05:24;0.30;;;0.30;;
76310;SDS011;65120;59.304;18.294;2023-06-26T11:08:05;2.38;;;0.20;;
76310;SDS011;65120;59.304;18.294;2023-06-26T11:10:48;0.52;;;0.20;;
76310;SDS011;65120;59.304;18.294;2023-06-26T11:13:18;1.27;;;0.20;;
76310;SDS011;65120;59.304;18.294;2023-06-26T11:15:46;0.47;;;0.20;;
76310;SDS011;65120;59.304;18.294;2023-06-26T11:18:12;0.20;;;0.15;;
76310;SDS011;65120;59.304;18.294;2023-06-26T11:20:41;1.58;;;0.30;;
76310;SDS011;65120;59.304;18.294;2023-06-26T11:23:08;1.30;;;0.20;;
76310;SDS011;65120;59.304;18.294;2023-06-26T11:25:36;0.88;;;0.30;;
76310;SDS011;65120;59.304;18.294;2023-06-26T11:28:04;0.28;;;0.20;;
76310;SDS011;65120;59.304;18.294;2023-06-26T11:30:31;0.35;;;0.30;;
76310;SDS011;65120;59.304;18.294;2023-06-26T11:33:02;0.40;;;0.20;;
76310;SDS011;65120;59.304;18.294;2023-06-26T11:35:30;0.20;;;0.20;;
76310;SDS011;65120;59.304;18.294;2023-06-26T11:37:58;0.57;;;0.30;;
76310;SDS011;65120;59.304;18.294;2023-06-26T11:40:29;0.25;;;0.20;;
76310;SDS011;65120;59.304;18.294;2023-06-26T11:42:57;1.10;;;0.20;;
76310;SDS011;65120;59.304;18.294;2023-06-26T11:45:25;0.30;;;0.28;;
76310;SDS011;65120;59.304;18.294;2023-06-26T11:47:52;0.20;;;0.20;;
76310;SDS011;65120;59.304;18.294;2023-06-26T11:50:21;1.27;;;0.50;;
76310;SDS011;65120;59.304;18.294;2023-06-26T11:52:52;0.45;;;0.38;;
76310;SDS011;65120;59.304;18.294;2023-06-26T11:55:22;0.28;;;0.20;;
76310;SDS011;65120;59.304;18.294;2023-06-26T11:57:49;0.77;;;0.30;;
76310;SDS011;65120;59.304;18.294;2023-06-26T12:00:16;0.65;;;0.25;;
76310;SDS011;65120;59.304;18.294;2023-06-26T12:02:44;1.02;;;0.20;;
76310;SDS011;65120;59.304;18.294;2023-06-26T12:05:12;0.20;;;0.20;;
76310;SDS011;65120;59.304;18.294;2023-06-26T12:07:39;1.45;;;0.20;;
76310;SDS011;65120;59.304;18.294;2023-06-26T12:10:07;0.63;;;0.30;;
76310;SDS011;65120;59.304;18.294;2023-06-26T12:12:38;1.15;;;0.40;;
76310;SDS011;65120;59.304;18.294;2023-06-26T12:15:05;1.67;;;0.30;;
76310;SDS011;65120;59.304;18.294;2023-06-26T12:17:36;0.30;;;0.28;;
76310;SDS011;65120;59.304;18.294;2023-06-26T12:20:04;0.70;;;0.30;;
76310;SDS011;65120;59.304;18.294;2023-06-26T12:22:45;0.95;;;0.30;;
76310;SDS011;65120;59.304;18.294;2023-06-26T12:25:13;0.52;;;0.40;;
76310;SDS011;65120;59.304;18.294;2023-06-26T12:27:44;0.63;;;0.30;;
76310;SDS011;65120;59.304;18.294;2023-06-26T12:30:12;0.32;;;0.22;;
76310;SDS011;65120;59.304;18.294;2023-06-26T12:32:39;0.47;;;0.30;;
76310;SDS011;65120;59.304;18.294;2023-06-26T12:35:06;0.40;;;0.30;;
76310;SDS011;65120;59.304;18.294;2023-06-26T12:37:36;0.50;;;0.30;;
76310;SDS011;65120;59.304;18.294;2023-06-26T12:40:09;0.30;;;0.30;;
76310;SDS011;65120;59.304;18.294;2023-06-26T12:42:44;0.80;;;0.30;;
76310;SDS011;65120;59.304;18.294;2023-06-26T12:45:12;0.28;;;0.22;;
76310;SDS011;65120;59.304;18.294;2023-06-26T12:47:39;0.50;;;0.30;;
76310;SDS011;65120;59.304;18.294;2023-06-26T12:50:07;3.72;;;0.35;;
76310;SDS011;65120;59.304;18.294;2023-06-26T12:52:34;0.55;;;0.30;;
76310;SDS011;65120;59.304;18.294;2023-06-26T12:55:01;0.68;;;0.20;;
76310;SDS011;65120;59.304;18.294;2023-06-26T12:57:28;0.60;;;0.40;;
76310;SDS011;65120;59.304;18.294;2023-06-26T12:59:56;0.28;;;0.20;;
76310;SDS011;65120;59.304;18.294;2023-06-26T13:02:24;1.10;;;0.30;;
76310;SDS011;65120;59.304;18.294;2023-06-26T13:04:51;0.20;;;0.20;;
76310;SDS011;65120;59.304;18.294;2023-06-26T13:07:18;0.30;;;0.20;;
76310;SDS011;65120;59.304;18.294;2023-06-26T13:09:45;0.30;;;0.20;;
76310;SDS011;65120;59.304;18.294;2023-06-26T13:12:13;1.05;;;0.20;;
76310;SDS011;65120;59.304;18.294;2023-06-26T13:14:40;0.30;;;0.20;;
76310;SDS011;65120;59.304;18.294;2023-06-26T13:17:08;0.50;;;0.20;;
76310;SDS011;65120;59.304;18.294;2023-06-26T13:19:35;0.40;;;0.20;;
76310;SDS011;65120;59.304;18.294;2023-06-26T13:22:02;2.25;;;0.20;;
76310;SDS011;65120;59.304;18.294;2023-06-26T13:24:29;0.68;;;0.30;;
76310;SDS011;65120;59.304;18.294;2023-06-26T13:26:56;1.45;;;0.20;;
76310;SDS011;65120;59.304;18.294;2023-06-26T13:29:22;0.30;;;0.20;;
76310;SDS011;65120;59.304;18.294;2023-06-26T13:31:49;1.52;;;0.65;;
76310;SDS011;65120;59.304;18.294;2023-06-26T13:34:21;0.60;;;0.30;;
76310;SDS011;65120;59.304;18.294;2023-06-26T13:36:49;2.35;;;0.30;;
76310;SDS011;65120;59.304;18.294;2023-06-26T13:39:16;0.52;;;0.20;;
76310;SDS011;65120;59.304;18.294;2023-06-26T13:41:43;0.38;;;0.30;;
76310;SDS011;65120;59.304;18.294;2023-06-26T13:44:10;0.80;;;0.43;;
76310;SDS011;65120;59.304;18.294;2023-06-26T13:46:36;0.30;;;0.20;;
76310;SDS011;65120;59.304;18.294;2023-06-26T13:49:03;0.93;;;0.30;;
76310;SDS011;65120;59.304;18.294;2023-06-26T13:51:31;0.50;;;0.30;;
76310;SDS011;65120;59.304;18.294;2023-06-26T13:53:58;0.43;;;0.20;;
76310;SDS011;65120;59.304;18.294;2023-06-26T13:56:26;0.30;;;0.30;;
76310;SDS011;65120;59.304;18.294;2023-06-26T13:58:55;0.30;;;0.30;;
76310;SDS011;65120;59.304;18.294;2023-06-26T14:01:23;2.10;;;0.20;;
76310;SDS011;65120;59.304;18.294;2023-06-26T14:03:52;1.05;;;0.30;;
76310;SDS011;65120;59.304;18.294;2023-06-26T14:06:19;0.63;;;0.20;;
76310;SDS011;65120;59.304;18.294;2023-06-26T14:08:47;0.70;;;0.20;;
76310;SDS011;65120;59.304;18.294;2023-06-26T14:11:14;0.52;;;0.20;;
76310;SDS011;65120;59.304;18.294;2023-06-26T14:13:41;1.20;;;0.20;;
76310;SDS011;65120;59.304;18.294;2023-06-26T14:16:08;1.02;;;0.43;;
76310;SDS011;65120;59.304;18.294;2023-06-26T14:18:35;0.20;;;0.13;;
76310;SDS011;65120;59.304;18.294;2023-06-26T14:21:02;0.40;;;0.20;;
76310;SDS011;65120;59.304;18.294;2023-06-26T14:23:29;0.55;;;0.20;;
76310;SDS011;65120;59.304;18.294;2023-06-26T14:25:57;0.38;;;0.28;;
76310;SDS011;65120;59.304;18.294;2023-06-26T14:28:24;0.30;;;0.25;;
76310;SDS011;65120;59.304;18.294;2023-06-26T14:30:51;0.55;;;0.30;;
76310;SDS011;65120;59.304;18.294;2023-06-26T14:33:18;1.05;;;0.20;;
76310;SDS011;65120;59.304;18.294;2023-06-26T14:35:45;0.77;;;0.40;;
76310;SDS011;65120;59.304;18.294;2023-06-26T14:38:12;0.73;;;0.20;;